Time;durP1;ratioP1;P1;durP2;ratioP2;P2;SDS_P1;SDS_P2;PMS_P1;PMS_P2;Temp;Humidity;BMP_temperature;BMP_pressure;BME280_temperature;BME280_humidity;BME280_pressure;Samples;Min_cycle;Max_cycle;Signal;HPM_P1;HPM_P2
2023/04/06 00:00:40;;;;;;;28.77;16.60;;;;;;;;;;4868746;29;20060;-80
2023/04/06 00:08:47;;;;;;;23.30;14.43;;;;;;;;;;5014983;23;20049;-81
2023/04/06 00:11:13;;;;;;;26.08;13.85;;;;;;;;;;4959973;28;20047;-77
2023/04/06 00:16:16;;;;;;;24.42;14.73;;;102.50;2227.20;;;;;;4956439;23;20022;-82
2023/04/06 00:22:31;;;;;;;24.85;13.63;;;102.40;2227.20;;;;;;4980154;23;20124;-79
2023/04/06 00:24:57;;;;;;;22.77;13.68;;;77.60;2227.20;;;;;;4922207;29;20021;-79
2023/04/06 00:29:58;;;;;;;19.65;12.00;;;77.40;2227.20;;;;;;4947021;29;20062;-80
2023/04/06 00:32:24;;;;;;;22.83;12.35;;;77.40;2227.20;;;;;;4993683;23;20439;-79
2023/04/06 00:38:13;;;;;;;20.90;11.98;;;77.30;2227.20;;;;;;4906377;29;20028;-81
2023/04/06 00:43:18;;;;;;;23.83;12.63;;;;;;;;;;4924623;29;20041;-79
2023/04/06 00:45:44;;;;;;;24.70;12.63;;;;;;;;;;4979566;23;20032;-80
2023/04/06 00:48:12;;;;;;;21.10;12.65;;;;;;;;;;4929386;29;20019;-80
2023/04/06 00:50:38;;;;;;;25.60;12.50;;;;;;;;;;4916945;29;20044;-79
2023/04/06 00:53:04;;;;;;;21.65;12.02;;;;;;;;;;4924659;29;20016;-79
2023/04/06 00:58:24;;;;;;;19.27;11.05;;;;;;;;;;5058388;23;20055;-80
2023/04/06 01:00:52;;;;;;;21.50;11.35;;;;;;;;;;4943051;28;20028;-80
2023/04/06 01:03:19;;;;;;;22.40;11.90;;;;;;;;;;4927593;28;20020;-79
2023/04/06 01:08:15;;;;;;;20.65;11.45;;;77.50;2227.20;;;;;;5159939;23;20101;-79
2023/04/06 01:10:42;;;;;;;19.25;11.13;;;77.50;2227.20;;;;;;4906894;29;20029;-82
2023/04/06 01:13:10;;;;;;;20.35;11.00;;;77.30;2227.20;;;;;;4942930;23;20036;-80
2023/04/06 01:15:38;;;;;;;16.30;10.02;;;77.20;2227.20;;;;;;4928283;28;20032;-79
2023/04/06 01:18:06;;;;;;;19.35;10.07;;;77.10;2227.20;;;;;;4944425;28;20027;-79
2023/04/06 01:27:22;;;;;;;17.08;9.82;;;77.10;2227.20;;;;;;4941265;29;20044;-81
2023/04/06 01:29:48;;;;;;;19.77;10.55;;;77.00;2227.20;;;;;;4941371;29;20079;-81
2023/04/06 01:32:16;;;;;;;19.10;9.95;;;77.10;2227.20;;;;;;4923447;29;20126;-77
2023/04/06 01:34:41;;;;;;;19.60;10.25;;;76.90;2227.20;;;;;;4924606;29;20033;-80
2023/04/06 01:37:07;;;;;;;21.02;10.52;;;76.90;2227.20;;;;;;4936529;29;20039;-81
2023/04/06 01:39:38;;;;;;;17.95;9.90;;;76.90;2227.20;;;;;;4984979;23;20045;-82
2023/04/06 01:42:06;;;;;;;16.95;9.73;;;76.80;2227.20;;;;;;4905695;29;20044;-78
2023/04/06 01:44:32;;;;;;;18.25;9.88;;;76.80;2227.20;;;;;;4865770;29;20022;-81
2023/04/06 01:46:59;;;;;;;17.23;9.73;;;76.80;2227.20;;;;;;4865879;29;20078;-79
2023/04/06 01:49:25;;;;;;;16.30;10.30;;;76.80;2227.20;;;;;;4863037;29;20049;-80
2023/04/06 01:57:57;;;;;;;15.85;9.50;;;52.10;2227.20;;;;;;1739321;23;20456;-79
2023/04/06 02:00:23;;;;;;;17.40;9.95;;;76.80;2227.20;;;;;;4925424;28;20059;-82
2023/04/06 02:02:49;;;;;;;20.17;10.05;;;52.10;2227.20;;;;;;4927464;29;20024;-81
2023/04/06 02:10:22;;;;;;;16.77;9.10;;;52.00;2227.20;;;;;;4905315;29;20596;-79
2023/04/06 02:12:48;;;;;;;16.40;9.80;;;51.90;2227.20;;;;;;4885420;29;20032;-79
2023/04/06 02:15:14;;;;;;;16.35;9.48;;;51.90;2227.20;;;;;;4883660;29;20036;-79
2023/04/06 02:17:41;;;;;;;15.52;8.88;;;52.00;2227.20;;;;;;4888631;29;20016;-79
2023/04/06 02:20:07;;;;;;;17.63;10.20;;;;;;;;;;4902557;29;20046;-81
2023/04/06 02:22:33;;;;;;;20.25;10.30;;;;;;;;;;4918786;29;20050;-81
2023/04/06 02:25:00;;;;;;;20.58;9.80;;;;;;;;;;5142216;23;20040;-83
2023/04/06 02:32:55;;;;;;;16.35;9.65;;;;;;;;;;4959136;28;20051;-79
2023/04/06 02:38:25;;;;;;;17.00;9.30;;;;;;;;;;4961605;28;20023;-79
2023/04/06 02:40:52;;;;;;;17.45;9.90;;;;;;;;;;4953037;29;20044;-79
2023/04/06 02:43:18;;;;;;;17.98;9.90;;;;;;;;;;4927133;29;20032;-78
2023/04/06 02:45:44;;;;;;;20.40;9.95;;;;;;;;;;4934444;29;20015;-79
2023/04/06 02:48:10;;;;;;;17.80;9.95;;;;;;;;;;4953490;29;20035;-78
2023/04/06 02:50:36;;;;;;;19.50;9.68;;;;;;;;;;4960784;28;20035;-79
2023/04/06 02:53:03;;;;;;;19.52;10.40;;;;;;;;;;4953464;29;20048;-79
2023/04/06 02:55:29;;;;;;;17.88;10.13;;;;;;;;;;4938787;29;20040;-79
2023/04/06 02:57:55;;;;;;;17.58;9.90;;;;;;;;;;4958196;28;20004;-80
2023/04/06 03:00:23;;;;;;;19.02;10.65;;;;;;;;;;4941322;29;20103;-79
2023/04/06 03:02:50;;;;;;;17.75;10.93;;;;;;;;;;4956968;29;20023;-79
2023/04/06 03:05:17;;;;;;;21.63;11.00;;;;;;;;;;4940444;29;20032;-79
2023/04/06 03:07:44;;;;;;;24.13;12.23;;;;;;;;;;4951956;29;20043;-79
2023/04/06 03:10:10;;;;;;;27.60;13.32;;;;;;;;;;4955109;29;20051;-79
2023/04/06 03:12:37;;;;;;;30.92;13.75;;;;;;;;;;4955675;29;20090;-80
2023/04/06 03:15:04;;;;;;;33.17;15.45;;;;;;;;;;4938891;29;20035;-80
2023/04/06 03:17:30;;;;;;;33.33;15.55;;;;;;;;;;4933151;28;20036;-82
2023/04/06 03:26:09;;;;;;;;;;;;;;;;;;4946012;28;20038;-81
2023/04/06 03:28:52;;;;;;;108.68;36.42;;;;;;;;;;4956959;29;19907;-81
2023/04/06 03:31:38;;;;;;;89.95;31.08;;;;;;;;;;4887889;29;20120;-79
2023/04/06 03:37:16;;;;;;;47.72;19.42;;;;;;;;;;4885826;29;20025;-80
2023/04/06 03:39:43;;;;;;;39.55;16.42;;;;;;;;;;4857351;29;20049;-80
2023/04/06 03:42:10;;;;;;;40.67;16.58;;;;;;;;;;4874066;29;20117;-80
2023/04/06 03:44:36;;;;;;;36.17;16.27;;;;;;;;;;4885591;29;20044;-79
2023/04/06 03:47:03;;;;;;;39.60;16.35;;;;;;;;;;4882758;29;20040;-80
2023/04/06 03:49:53;;;;;;;39.45;18.20;;;;;;;;;;4892636;29;20065;-79
2023/04/06 03:52:24;;;;;;;52.15;19.88;;;;;;;;;;4896148;29;20042;-80
2023/04/06 03:54:57;;;;;;;85.22;30.35;;;;;;;;;;4896157;29;20498;-80
2023/04/06 03:57:28;;;;;;;76.60;28.13;;;;;;;;;;4892152;29;20044;-80
2023/04/06 03:59:55;;;;;;;65.50;24.83;;;;;;;;;;4892687;29;20354;-80
2023/04/06 04:02:21;;;;;;;49.83;20.48;;;;;;;;;;4878371;29;20048;-80
2023/04/06 04:05:24;;;;;;;44.05;18.50;;;;;;;;;;4932760;29;20069;-79
2023/04/06 04:07:52;;;;;;;33.70;15.77;;;;;;;;;;4929443;29;20546;-80
2023/04/06 04:10:19;;;;;;;29.10;14.65;;;;;;;;;;4924559;29;20048;-78
2023/04/06 04:12:53;;;;;;;25.23;12.82;;;;;;;;;;4933271;29;20028;-80
2023/04/06 04:15:22;;;;;;;24.85;12.20;;;;;;;;;;4936707;29;20024;-80
2023/04/06 04:17:54;;;;;;;26.17;12.50;;;;;;;;;;4918777;29;20036;-78
2023/04/06 04:20:21;;;;;;;25.55;12.52;;;;;;;;;;4937157;29;20509;-79
2023/04/06 04:22:54;;;;;;;25.02;12.90;;;;;;;;;;4935319;29;20040;-79
2023/04/06 04:25:21;;;;;;;22.23;12.70;;;;;;;;;;4935610;29;20076;-79
2023/04/06 04:27:49;;;;;;;22.83;12.50;;;;;;;;;;4937395;29;20079;-79
2023/04/06 04:30:16;;;;;;;24.60;13.68;;;;;;;;;;4903163;29;20545;-79
2023/04/06 04:32:43;;;;;;;24.35;12.80;;;;;;;;;;4919063;29;20056;-79
2023/04/06 04:38:35;;;;;;;25.52;14.07;;;;;;;;;;4936677;29;20053;-78
2023/04/06 04:41:06;;;;;;;25.30;13.93;;;;;;;;;;4936024;29;20051;-79
2023/04/06 04:43:34;;;;;;;28.65;14.45;;;;;;;;;;4936326;29;20028;-79
2023/04/06 04:46:04;;;;;;;29.65;13.65;;;;;;;;;;4920199;29;20031;-79
2023/04/06 04:48:33;;;;;;;29.13;14.48;;;;;;;;;;4950059;23;20051;-80
2023/04/06 04:51:19;;;;;;;41.28;19.55;;;;;;;;;;4918328;29;20032;-79
2023/04/06 04:53:46;;;;;;;48.60;21.63;;;;;;;;;;4932525;29;20051;-80
2023/04/06 04:56:13;;;;;;;48.55;21.88;;;;;;;;;;4917962;29;20039;-80
2023/04/06 04:58:44;;;;;;;52.25;23.00;;;;;;;;;;4932849;29;20047;-79
2023/04/06 05:01:14;;;;;;;58.80;24.17;;;;;;;;;;4890119;29;20147;-79
2023/04/06 05:03:41;;;;;;;51.47;23.02;;;;;;;;;;4919679;29;20068;-79
2023/04/06 05:09:31;;;;;;;45.58;21.75;;;;;;;;;;4935616;29;20059;-80
2023/04/06 05:11:58;;;;;;;42.13;19.33;;;;;;;;;;4936035;29;20035;-80
2023/04/06 05:14:25;;;;;;;41.40;18.20;;;;;;;;;;4938383;29;20040;-79
2023/04/06 05:16:58;;;;;;;36.13;17.13;;;;;;;;;;4919215;29;20044;-79
2023/04/06 05:19:24;;;;;;;35.92;17.42;;;;;;;;;;4906047;29;20036;-79
2023/04/06 05:21:53;;;;;;;32.05;15.60;;;;;;;;;;4916207;23;20059;-80
2023/04/06 05:24:20;;;;;;;31.63;15.77;;;;;;;;;;4914017;29;20059;-80
2023/04/06 05:26:47;;;;;;;38.83;17.08;;;;;;;;;;4919672;29;20024;-79
2023/04/06 05:29:26;;;;;;;36.03;17.35;;;;;;;;;;4895342;29;20179;-79
2023/04/06 05:31:52;;;;;;;41.20;18.15;;;;;;;;;;4908371;29;20075;-79
2023/04/06 05:34:20;;;;;;;44.05;18.75;;;;;;;;;;4998478;23;20512;-79
2023/04/06 05:37:18;;;;;;;49.00;19.48;;;;;;;;;;4901676;29;20036;-79
2023/04/06 05:39:49;;;;;;;38.13;18.05;;;;;;;;;;4906046;29;20132;-79
2023/04/06 05:42:16;;;;;;;38.55;17.85;;;;;;;;;;4907827;29;20095;-79
2023/04/06 05:44:49;;;;;;;42.92;18.90;;;;;;;;;;4907979;29;20036;-79
2023/04/06 05:47:16;;;;;;;40.40;18.67;;;;;;;;;;4894454;29;20033;-80
2023/04/06 05:49:47;;;;;;;34.35;16.95;;;;;;;;;;4903073;29;20036;-83
2023/04/06 05:55:17;;;;;;;;;;;;;;;;;;4906549;29;20021;-81
2023/04/06 05:58:02;;;;;;;37.47;17.90;;;;;;;;;;4905838;29;19895;-80
2023/04/06 06:00:30;;;;;;;40.03;18.10;;;;;;;;;;4896697;29;20031;-80
2023/04/06 06:02:57;;;;;;;34.72;16.35;;;;;;;;;;4908867;29;20065;-79
2023/04/06 06:08:41;;;;;;;31.30;15.88;;;;;;;;;;4924880;23;20112;-79
2023/04/06 06:11:10;;;;;;;29.35;15.00;;;;;;;;;;4911983;29;20510;-79
2023/04/06 06:13:37;;;;;;;30.95;14.63;;;;;;;;;;4901411;29;20032;-79
2023/04/06 06:16:05;;;;;;;26.13;14.90;;;;;;;;;;4903099;29;20093;-80
2023/04/06 06:18:41;;;;;;;24.95;14.40;;;;;;;;;;4902952;29;20044;-80
2023/04/06 06:21:14;;;;;;;23.05;12.57;;;;;;;;;;4887696;29;20025;-79
2023/04/06 06:23:42;;;;;;;22.98;12.80;;;103.30;2227.20;;;;;;4904456;29;20035;-79
2023/04/06 06:26:12;;;;;;;24.55;12.63;;;103.10;2227.20;;;;;;4903987;29;20037;-79
2023/04/06 06:28:41;;;;;;;21.33;12.38;;;103.20;2227.20;;;;;;4905965;29;20040;-79
2023/04/06 06:31:07;;;;;;;20.40;12.10;;;128.70;2252.80;;;;;;4889398;29;20048;-80
2023/04/06 06:33:34;;;;;;;19.77;10.45;;;307.40;1715.20;;;;;;4893934;29;20033;-81
2023/04/06 06:36:40;;;;;;;18.80;10.68;;;409.90;1254.40;;;;;;4889537;29;20143;-80
2023/04/06 06:39:07;;;;;;;16.98;10.35;;;435.80;1203.20;;;;;;4904373;29;20538;-80
2023/04/06 06:41:33;;;;;;;21.58;12.60;;;487.00;1075.20;;;;;;4888237;29;20558;-81
2023/04/06 06:44:01;;;;;;;20.98;12.93;;;512.10;1024.00;;;;;;4901859;29;20033;-81
2023/04/06 06:46:28;;;;;;;17.23;10.80;;;538.10;972.80;;;;;;4897923;29;20046;-81
2023/04/06 06:49:06;;;;;;;15.63;9.95;;;538.40;947.20;;;;;;4907366;29;20056;-81
2023/04/06 06:51:33;;;;;;;21.75;11.63;;;538.00;896.00;;;;;;4902944;29;20041;-81
2023/04/06 06:54:08;;;;;;;17.35;10.00;;;;;;;;;;4920281;23;20057;-81
2023/04/06 06:56:37;;;;;;;14.82;9.80;;;;;;;;;;4872231;29;20526;-81
2023/04/06 06:59:38;;;;;;;14.45;9.18;;;538.00;921.60;;;;;;4893344;29;20028;-82
2023/04/06 07:02:26;;;;;;;14.75;9.30;;;563.40;896.00;;;;;;4865735;29;20026;-82
2023/04/06 07:04:58;;;;;;;17.15;11.07;;;538.20;896.00;;;;;;4848207;29;20062;-79
2023/04/06 07:07:30;;;;;;;19.25;13.18;;;563.50;870.40;;;;;;4842139;29;20010;-81
2023/04/06 07:09:57;;;;;;;18.30;9.40;;;;;;;;;;4830651;29;20034;-81
2023/04/06 07:12:24;;;;;;;13.25;8.50;;;;;;;;;;4846505;29;20047;-81
2023/04/06 07:14:50;;;;;;;13.63;8.57;;;;;;;;;;4852528;29;20046;-82
2023/04/06 07:17:16;;;;;;;11.48;8.00;;;;;;;;;;4863414;29;20113;-81
2023/04/06 07:19:42;;;;;;;15.00;8.40;;;;;;;;;;4863583;29;20014;-83
2023/04/06 07:22:12;;;;;;;13.55;8.40;;;410.00;1049.60;;;;;;4847914;29;20054;-82
2023/04/06 07:24:41;;;;;;;11.45;7.03;;;384.00;1100.80;;;;;;4860357;29;20034;-82
2023/04/06 07:27:08;;;;;;;10.68;6.70;;;333.40;1177.60;;;;;;4894150;29;20055;-81
2023/04/06 07:29:35;;;;;;;11.15;6.65;;;333.30;1203.20;;;;;;4920683;29;20036;-82
2023/04/06 07:32:14;;;;;;;11.32;6.70;;;;;;;;;;4903418;29;20044;-82
2023/04/06 07:34:48;;;;;;;9.98;6.10;;;307.70;1177.60;;;;;;4919334;29;20067;-81
2023/04/06 07:37:14;;;;;;;11.13;7.03;;;281.60;1228.80;;;;;;4918698;29;20028;-81
2023/04/06 07:39:41;;;;;;;15.00;7.28;;;282.10;1280.00;;;;;;4919172;29;20110;-84
2023/04/06 07:42:07;;;;;;;13.88;7.95;;;281.90;1305.60;;;;;;4919315;29;20031;-80
2023/04/06 07:44:37;;;;;;;11.52;7.38;;;281.90;1331.20;;;;;;4895564;29;20123;-80
2023/04/06 07:47:05;;;;;;;9.68;6.60;;;281.80;1305.60;;;;;;4900472;29;20088;-81
2023/04/06 07:49:32;;;;;;;9.35;6.57;;;281.70;1280.00;;;;;;4904567;29;20103;-81
2023/04/06 07:52:07;;;;;;;11.20;7.25;;;230.70;1356.80;;;;;;4900454;29;20041;-82
2023/04/06 07:54:56;;;;;;;11.43;6.78;;;230.90;1408.00;;;;;;4899869;29;20053;-81
2023/04/06 07:57:26;;;;;;;13.13;7.20;;;256.00;1382.40;;;;;;4905234;29;20025;-81
2023/04/06 07:59:59;;;;;;;10.43;6.85;;;230.80;1382.40;;;;;;4891050;29;20040;-81
2023/04/06 08:02:43;;;;;;;12.70;6.65;;;256.30;1356.80;;;;;;4909856;29;20033;-84
2023/04/06 08:05:15;;;;;;;11.88;7.00;;;256.80;1331.20;;;;;;4902897;29;20033;-82
2023/04/06 08:10:46;;;;;;;13.10;8.15;;;;;;;;;;4899176;29;20052;-82
2023/04/06 08:13:16;;;;;;;11.75;6.72;;;281.80;1331.20;;;;;;4910844;29;20029;-82
2023/04/06 08:15:42;;;;;;;12.10;6.95;;;256.60;1305.60;;;;;;4900512;29;20033;-84
2023/04/06 08:20:41;;;;;;;17.15;9.30;;;256.30;1356.80;;;;;;4913279;29;20075;-81
2023/04/06 08:23:25;;;;;;;16.10;9.50;;;256.40;1356.80;;;;;;4900014;29;20463;-81
2023/04/06 08:26:09;;;;;;;29.13;12.80;;;256.70;1331.20;;;;;;4889660;29;20101;-82
2023/04/06 08:28:39;;;;;;;16.60;8.60;;;282.10;1356.80;;;;;;4845997;29;20025;-81
2023/04/06 08:31:19;;;;;;;14.18;8.07;;;282.20;1331.20;;;;;;4842476;29;20044;-82
2023/04/06 08:33:45;;;;;;;15.85;8.95;;;256.60;1305.60;;;;;;4839942;29;20053;-80
2023/04/06 08:36:23;;;;;;;29.35;11.68;;;256.50;1331.20;;;;;;4855661;29;20034;-82
2023/04/06 08:39:10;;;;;;;12.95;7.85;;;281.70;1382.40;;;;;;4828752;29;20035;-79
2023/04/06 08:42:02;;;;;;;64.03;19.48;;;281.90;1331.20;;;;;;4858161;29;20041;-80
2023/04/06 08:44:35;;;;;;;13.05;8.00;;;282.40;1305.60;;;;;;4841907;29;20039;-80
2023/04/06 08:47:09;;;;;;;15.13;9.10;;;282.40;1305.60;;;;;;4853409;29;20030;-81
2023/04/06 08:49:40;;;;;;;20.58;10.45;;;;;;;;;;4844619;29;20054;-82
2023/04/06 08:55:13;;;;;;;14.32;8.82;;;;;;;;;;4851363;29;20110;-80
2023/04/06 08:57:59;;;;;;;13.88;7.93;;;;;;;;;;4845487;29;20038;-80
2023/04/06 09:00:28;;;;;;;13.43;7.55;;;333.10;1280.00;;;;;;4904071;29;20037;-80
2023/04/06 09:03:17;;;;;;;11.32;6.90;;;333.00;1254.40;;;;;;4893022;29;20068;-80
2023/04/06 09:05:45;;;;;;;11.60;7.22;;;332.80;1228.80;;;;;;4912516;29;20067;-81
2023/04/06 09:08:13;;;;;;;13.02;7.28;;;332.80;1280.00;;;;;;4908354;29;20037;-82
2023/04/06 09:10:45;;;;;;;11.02;7.25;;;307.80;1228.80;;;;;;5043763;23;20104;-79
2023/04/06 09:13:17;;;;;;;13.20;7.63;;;;;;;;;;4874527;29;20079;-81
2023/04/06 09:16:04;;;;;;;15.98;9.13;;;;;;;;;;4896822;29;20029;-80
2023/04/06 09:18:32;;;;;;;13.13;8.30;;;;;;;;;;4896191;29;20049;-79
2023/04/06 09:21:02;;;;;;;15.52;8.90;;;;;;;;;;4877313;29;20072;-80
2023/04/06 09:23:29;;;;;;;12.80;7.63;;;;;;;;;;4892822;29;20033;-83
2023/04/06 09:26:14;;;;;;;10.93;7.28;;;;;;;;;;4896207;29;20034;-80
2023/04/06 09:28:40;;;;;;;;;;;;;;;;;;4892532;29;20029;-81
2023/04/06 09:31:06;;;;;;;12.73;7.03;;;;;;;;;;4891025;29;19915;-79
2023/04/06 09:33:34;;;;;;;15.05;8.18;;;;;;;;;;4890091;29;20047;-80
2023/04/06 09:36:00;;;;;;;14.55;8.88;;;;;;;;;;4885352;29;20036;-78
2023/04/06 09:38:26;;;;;;;28.70;10.65;;;;;;;;;;4880782;29;20036;-79
2023/04/06 09:40:52;;;;;;;11.68;7.25;;;;;;;;;;4875693;29;20040;-78
2023/04/06 09:43:32;;;;;;;12.13;7.10;;;308.10;1305.60;;;;;;4870403;29;20032;-80
2023/04/06 09:46:46;;;;;;;12.38;7.80;;;333.10;1305.60;;;;;;4894736;29;20040;-80
2023/04/06 09:49:31;;;;;;;12.23;6.70;;;333.10;1280.00;;;;;;4876291;29;20033;-80
2023/04/06 09:52:20;;;;;;;;;;;333.60;1228.80;;;;;;4877353;29;20053;-80
2023/04/06 09:55:09;;;;;;;13.95;9.10;;;333.00;1254.40;;;;;;4858651;29;19908;-80
2023/04/06 09:57:50;;;;;;;14.30;9.35;;;333.70;1305.60;;;;;;4877133;29;20038;-81
2023/04/06 10:00:26;;;;;;;13.32;8.57;;;333.40;1305.60;;;;;;4859125;29;20041;-82
2023/04/06 10:03:20;;;;;;;13.48;9.00;;;333.50;1254.40;;;;;;4877578;29;20041;-81
2023/04/06 10:12:52;;;;;;;14.57;8.65;;;333.10;1280.00;;;;;;4918700;29;20119;-82
2023/04/06 10:15:21;;;;;;;15.63;9.30;;;333.40;1305.60;;;;;;4916166;29;20584;-81
2023/04/06 10:17:49;;;;;;;16.40;9.80;;;333.60;1280.00;;;;;;4896458;29;20032;-80
2023/04/06 10:20:53;;;;;;;15.02;9.15;;;333.10;1254.40;;;;;;4922195;29;20031;-81
2023/04/06 10:23:58;;;;;;;20.98;12.38;;;308.10;1254.40;;;;;;4911074;29;20048;-81
2023/04/06 10:26:36;;;;;;;17.55;9.32;;;308.00;1254.40;;;;;;4942178;23;20060;-82
2023/04/06 10:29:04;;;;;;;17.65;10.02;;;308.00;1280.00;;;;;;4901462;29;20048;-82
2023/04/06 10:31:34;;;;;;;17.38;8.07;;;333.20;1280.00;;;;;;4910100;29;20028;-81
2023/04/06 10:34:03;;;;;;;13.77;8.85;;;308.10;1254.40;;;;;;4897525;29;20044;-81
2023/04/06 10:36:33;;;;;;;12.30;7.68;;;332.80;1254.40;;;;;;4907675;29;20053;-80
2023/04/06 10:42:51;;;;;;;16.35;9.20;;;333.20;1254.40;;;;;;4903933;29;20021;-82
2023/04/06 10:45:24;;;;;;;15.15;8.23;;;333.40;1254.40;;;;;;4903408;29;20036;-81
2023/04/06 10:47:57;;;;;;;16.83;8.90;;;333.30;1254.40;;;;;;4890320;29;20033;-81
2023/04/06 10:50:59;;;;;;;13.77;8.95;;;333.40;1254.40;;;;;;4893934;29;20060;-82
2023/04/06 10:53:35;;;;;;;14.55;9.05;;;333.40;1254.40;;;;;;4894834;29;20062;-81
2023/04/06 10:56:10;;;;;;;13.25;8.18;;;333.60;1254.40;;;;;;4889710;29;20047;-82
2023/04/06 10:58:36;;;;;;;15.07;9.70;;;358.60;1203.20;;;;;;4905127;29;20032;-82
2023/04/06 11:01:28;;;;;;;16.00;8.95;;;358.90;1203.20;;;;;;4902227;29;20041;-80
2023/04/06 11:03:59;;;;;;;13.00;8.77;;;358.40;1203.20;;;;;;4903766;29;20058;-82
2023/04/06 11:06:31;;;;;;;14.55;8.15;;;358.60;1203.20;;;;;;4915205;29;20097;-80
2023/04/06 11:09:28;;;;;;;14.82;10.20;;;358.70;1177.60;;;;;;4906338;29;20037;-81
2023/04/06 11:11:55;;;;;;;14.60;9.90;;;358.50;1203.20;;;;;;4899512;29;20029;-82
2023/04/06 11:14:28;;;;;;;15.15;8.70;;;359.00;1177.60;;;;;;4913850;29;20051;-82
2023/04/06 11:17:20;;;;;;;12.95;7.78;;;359.00;1152.00;;;;;;4901599;29;20028;-81
2023/04/06 11:19:49;;;;;;;11.80;7.63;;;358.90;1152.00;;;;;;4858826;29;20038;-81
2023/04/06 11:22:59;;;;;;;12.30;7.07;;;359.20;1126.40;;;;;;4859259;29;20041;-80
2023/04/06 11:25:35;;;;;;;12.05;7.00;;;358.80;1075.20;;;;;;4857225;29;20037;-81
2023/04/06 11:28:11;;;;;;;;;;;358.90;1100.80;;;;;;4860301;29;20054;-82
2023/04/06 11:30:39;;;;;;;14.00;8.60;;;358.60;1100.80;;;;;;4855436;29;19923;-82
2023/04/06 11:33:28;;;;;;;10.80;7.75;;;358.80;1126.40;;;;;;4853670;29;20060;-82
2023/04/06 11:35:58;;;;;;;14.68;8.60;;;358.90;1126.40;;;;;;4946214;23;20063;-83
2023/04/06 11:38:33;;;;;;;14.15;8.80;;;358.80;1126.40;;;;;;4936001;29;20027;-82
2023/04/06 11:41:02;;;;;;;14.20;8.20;;;359.00;1126.40;;;;;;4932762;29;20069;-82
2023/04/06 11:43:31;;;;;;;16.48;10.05;;;358.90;1126.40;;;;;;4908600;29;20044;-82
2023/04/06 11:46:02;;;;;;;17.02;10.63;;;384.30;1126.40;;;;;;4930551;28;20019;-81
2023/04/06 11:48:31;;;;;;;21.00;13.07;;;359.10;1126.40;;;;;;4941124;28;20020;-81
2023/04/06 11:51:26;;;;;;;13.07;9.00;;;359.00;1126.40;;;;;;4937502;23;20041;-84
2023/04/06 11:53:53;;;;;;;;;;;358.70;1126.40;;;;;;4904945;29;20039;-84
2023/04/06 11:56:29;;;;;;;16.55;9.75;;;358.40;1152.00;;;;;;4906671;29;19916;-83
2023/04/06 11:58:59;;;;;;;13.35;8.27;;;358.70;1152.00;;;;;;4906327;29;20009;-82
2023/04/06 12:01:28;;;;;;;12.35;8.02;;;358.60;1152.00;;;;;;4927477;28;20092;-81
2023/04/06 12:03:54;;;;;;;12.05;7.70;;;358.40;1152.00;;;;;;4919465;29;20028;-81
2023/04/06 12:06:21;;;;;;;14.57;8.90;;;358.60;1587.20;;;;;;4910943;29;20028;-81
2023/04/06 12:12:10;;;;;;;21.55;10.75;;;359.00;1126.40;;;;;;4909785;29;20061;-81
2023/04/06 12:14:36;;;;;;;12.57;8.45;;;359.10;1126.40;;;;;;4905646;29;20040;-81
2023/04/06 12:17:05;;;;;;;19.63;11.82;;;358.70;1126.40;;;;;;4909103;29;20032;-81
2023/04/06 12:19:31;;;;;;;20.52;13.20;;;358.90;1126.40;;;;;;4909059;29;20032;-82
2023/04/06 12:21:58;;;;;;;12.80;8.18;;;358.90;1126.40;;;;;;4906269;29;20029;-81
2023/04/06 12:32:13;;;;;;;20.80;10.43;;;359.10;1100.80;;;;;;4963762;23;20056;-81
2023/04/06 12:34:48;;;;;;;13.90;8.57;;;359.00;1100.80;;;;;;4865754;29;20044;-80
2023/04/06 12:37:15;;;;;;;13.68;8.77;;;359.00;1126.40;;;;;;4858662;29;20026;-81
2023/04/06 12:39:58;;;;;;;13.90;7.88;;;358.70;1126.40;;;;;;4864548;29;20053;-81
2023/04/06 12:42:27;;;;;;;17.50;8.00;;;358.70;1126.40;;;;;;4861232;29;20038;-81
2023/04/06 12:44:54;;;;;;;12.65;7.97;;;358.50;1126.40;;;;;;4861769;29;20042;-80
2023/04/06 12:47:20;;;;;;;10.93;7.25;;;358.80;1126.40;;;;;;4862977;29;20049;-81
2023/04/06 12:49:48;;;;;;;13.13;8.15;;;359.10;1126.40;;;;;;4861713;29;20034;-81
2023/04/06 12:52:15;;;;;;;13.93;9.27;;;359.10;1100.80;;;;;;4863916;29;20033;-80
2023/04/06 12:54:43;;;;;;;19.42;9.55;;;359.20;1100.80;;;;;;4863969;29;20050;-81
2023/04/06 12:57:13;;;;;;;15.18;8.90;;;358.70;1126.40;;;;;;4861546;29;20030;-80
2023/04/06 12:59:51;;;;;;;11.65;7.80;;;358.90;1126.40;;;;;;4862917;29;20034;-80
2023/04/06 13:02:24;;;;;;;16.38;9.10;;;359.20;1126.40;;;;;;4901192;23;20052;-80
2023/04/06 13:05:02;;;;;;;20.30;11.07;;;359.10;1100.80;;;;;;4932424;29;20051;-80
2023/04/06 13:07:34;;;;;;;14.60;9.18;;;359.20;1100.80;;;;;;4934802;29;20051;-80
2023/04/06 13:10:21;;;;;;;14.75;8.50;;;359.20;1100.80;;;;;;4932678;29;20120;-81
2023/04/06 13:12:48;;;;;;;16.73;10.23;;;384.20;1100.80;;;;;;4916298;29;20022;-82
2023/04/06 13:15:15;;;;;;;20.30;11.18;;;358.90;1126.40;;;;;;4944302;29;20067;-81
2023/04/06 13:17:41;;;;;;;12.20;8.13;;;359.20;1100.80;;;;;;4922911;29;20025;-82
2023/04/06 13:20:13;;;;;;;16.05;8.77;;;384.20;1100.80;;;;;;4934368;29;20032;-81
2023/04/06 13:24:01;;;;;;;11.40;7.35;;;359.20;1075.20;;;;;;4934951;29;20376;-81
2023/04/06 13:26:30;;;;;;;11.05;6.40;;;358.90;1100.80;;;;;;4937514;29;20020;-81
2023/04/06 13:29:06;;;;;;;14.50;6.97;;;358.90;1100.80;;;;;;4897135;29;20040;-81
2023/04/06 13:31:38;;;;;;;13.85;7.65;;;358.90;1100.80;;;;;;4923088;29;20044;-80
2023/04/06 13:34:04;;;;;;;12.15;6.85;;;358.70;1126.40;;;;;;4932739;29;20036;-81
2023/04/06 13:36:31;;;;;;;15.43;7.88;;;358.50;1152.00;;;;;;4915426;29;20127;-81
2023/04/06 13:38:59;;;;;;;13.43;7.78;;;358.50;1152.00;;;;;;4930138;29;20055;-80
2023/04/06 13:41:27;;;;;;;10.85;7.05;;;333.70;1177.60;;;;;;4922241;29;20025;-83
2023/04/06 13:43:53;;;;;;;12.23;8.65;;;333.60;1177.60;;;;;;4908970;29;20032;-80
2023/04/06 13:46:45;;;;;;;15.57;10.38;;;333.60;1177.60;;;;;;4901464;29;20262;-80
2023/04/06 13:49:12;;;;;;;13.80;7.88;;;358.40;1177.60;;;;;;4916818;29;20098;-81
2023/04/06 13:51:37;;;;;;;10.98;7.03;;;358.40;1152.00;;;;;;4915552;29;20039;-79
2023/04/06 13:54:11;;;;;;;13.40;7.63;;;358.40;1152.00;;;;;;4914065;29;20419;-80
2023/04/06 13:56:37;;;;;;;13.95;8.15;;;358.40;1152.00;;;;;;4898325;29;20040;-81
2023/04/06 13:59:03;;;;;;;11.57;7.13;;;358.40;1152.00;;;;;;4916156;29;20028;-81
2023/04/06 14:01:41;;;;;;;12.25;7.70;;;358.50;1152.00;;;;;;4917825;29;20067;-80
2023/04/06 14:04:08;;;;;;;11.52;7.22;;;358.70;1126.40;;;;;;4927211;29;20043;-81
2023/04/06 14:06:37;;;;;;;12.05;7.32;;;358.60;1126.40;;;;;;4937284;29;20040;-80
2023/04/06 14:09:09;;;;;;;10.48;6.50;;;358.40;1126.40;;;;;;4922165;29;20050;-81
2023/04/06 14:11:38;;;;;;;10.63;6.60;;;358.50;1126.40;;;;;;4918358;29;20027;-82
2023/04/06 14:14:05;;;;;;;13.82;8.80;;;358.60;1152.00;;;;;;4913388;29;20032;-83
2023/04/06 14:16:56;;;;;;;14.43;9.10;;;358.70;1126.40;;;;;;4912085;29;20044;-82
2023/04/06 14:19:44;;;;;;;15.75;9.20;;;358.50;1152.00;;;;;;4913964;29;20032;-80
2023/04/06 14:22:12;;;;;;;14.20;8.00;;;333.60;1152.00;;;;;;4903800;29;20035;-80
2023/04/06 14:24:41;;;;;;;17.05;10.15;;;333.20;1152.00;;;;;;4900789;29;20081;-81
2023/04/06 14:27:11;;;;;;;10.77;6.90;;;333.20;1177.60;;;;;;4919658;29;20095;-81
2023/04/06 14:29:45;;;;;;;13.32;7.72;;;333.20;1177.60;;;;;;4933082;29;20112;-80
2023/04/06 14:32:12;;;;;;;12.07;7.72;;;333.30;1152.00;;;;;;5003920;23;20064;-82
2023/04/06 14:34:39;;;;;;;20.92;10.93;;;333.50;1152.00;;;;;;4917542;29;20036;-81
2023/04/06 14:37:09;;;;;;;12.82;8.30;;;333.30;1177.60;;;;;;4916705;29;20081;-80
2023/04/06 14:39:42;;;;;;;15.25;8.30;;;333.40;1177.60;;;;;;4913179;29;20055;-81
2023/04/06 14:42:12;;;;;;;19.38;9.90;;;333.40;1177.60;;;;;;4914597;29;20036;-81
2023/04/06 14:44:42;;;;;;;12.75;7.40;;;333.40;1177.60;;;;;;4905568;29;20053;-79
2023/04/06 14:47:20;;;;;;;13.82;8.15;;;333.20;1177.60;;;;;;4897554;29;20045;-81
2023/04/06 14:49:47;;;;;;;15.90;9.70;;;333.30;1177.60;;;;;;4900877;29;20041;-82
2023/04/06 14:52:37;;;;;;;13.98;7.32;;;333.10;1203.20;;;;;;4901377;29;20464;-80
2023/04/06 14:55:04;;;;;;;15.13;9.27;;;332.80;1203.20;;;;;;4905954;29;20068;-82
2023/04/06 14:57:31;;;;;;;16.48;7.82;;;333.00;1203.20;;;;;;4898019;29;20048;-81
2023/04/06 15:00:01;;;;;;;16.20;8.00;;;332.90;1203.20;;;;;;4900950;29;20040;-80
2023/04/06 15:02:39;;;;;;;17.73;10.15;;;332.80;1203.20;;;;;;4914880;29;20064;-80
2023/04/06 15:05:11;;;;;;;15.13;8.40;;;333.30;1203.20;;;;;;4911799;29;20032;-79